Time;durP1;ratioP1;P1;durP2;ratioP2;P2;SDS_P1;SDS_P2;PMS_P1;PMS_P2;Temp;Humidity;BMP_temperature;BMP_pressure;BME280_temperature;BME280_humidity;BME280_pressure;Samples;Min_cycle;Max_cycle;Signal;HPM_P1;HPM_P2
2023/10/19 00:01:47;;;;;;;9.20;3.78;;;;;;;8.87;100.00;100601.63;5021985;28;20029;-74
2023/10/19 00:04:14;;;;;;;10.32;4.38;;;;;;;9.32;100.00;100695.50;5039864;28;20044;-72
2023/10/19 00:06:40;;;;;;;14.18;6.00;;;;;;;9.18;100.00;100700.91;5039744;28;20110;-71
2023/10/19 00:09:11;;;;;;;20.55;6.13;;;;;;;9.13;100.00;100693.78;5031692;28;20052;-75
2023/10/19 00:11:40;;;;;;;20.05;7.00;;;;;;;9.08;100.00;100685.81;5030807;28;20026;-71
2023/10/19 00:14:15;;;;;;;24.05;7.60;;;;;;;8.78;100.00;100605.47;5030705;28;20532;-75
2023/10/19 00:16:44;;;;;;;23.08;7.38;;;;;;;9.35;100.00;100688.78;5031580;28;20071;-75
2023/10/19 00:19:09;;;;;;;21.47;7.07;;;;;;;9.29;100.00;100669.59;5029507;28;20055;-71
2023/10/19 00:21:50;;;;;;;27.17;8.77;;;;;;;9.44;100.00;100659.09;5032610;28;20043;-74
2023/10/19 00:24:17;;;;;;;25.85;8.30;;;;;;;9.74;100.00;100677.59;5033369;28;20055;-71
2023/10/19 00:26:44;;;;;;;29.67;9.32;;;;;;;9.76;100.00;100650.19;5029239;28;20964;-71
2023/10/19 00:29:30;;;;;;;25.15;7.28;;;;;;;9.97;100.00;100667.38;5033286;28;20037;-71
2023/10/19 00:31:59;;;;;;;18.98;7.20;;;;;;;10.10;100.00;100677.41;5028527;28;20033;-71
2023/10/19 00:34:26;;;;;;;23.23;7.03;;;;;;;9.97;100.00;100675.13;5032693;28;20044;-71
2023/10/19 00:36:52;;;;;;;22.17;7.07;;;;;;;9.76;100.00;100664.78;5032235;28;20446;-70
2023/10/19 00:39:27;;;;;;;25.55;7.05;;;;;;;9.67;100.00;100678.13;5030900;28;20087;-71
2023/10/19 00:41:58;;;;;;;16.15;6.93;;;;;;;9.03;100.00;100590.34;5040835;28;20099;-72
2023/10/19 00:44:49;;;;;;;15.25;7.45;;;;;;;9.25;100.00;100653.13;5034141;28;20035;-70
2023/10/19 00:47:13;;;;;;;17.42;6.32;;;;;;;9.06;100.00;100630.81;5038295;28;20033;-70
2023/10/19 00:49:39;;;;;;;10.60;4.97;;;;;;;9.23;100.00;100665.94;5033876;28;20060;-70
2023/10/19 00:52:19;;;;;;;8.07;4.97;;;;;;;9.32;100.00;100659.41;5035920;28;20037;-71
2023/10/19 00:57:19;;;;;;;9.73;4.82;;;;;;;9.58;100.00;100665.72;5034238;28;20192;-74
2023/10/19 00:59:51;;;;;;;8.30;4.30;;;;;;;9.68;100.00;100664.44;5035240;28;20038;-71
2023/10/19 01:02:17;;;;;;;7.55;4.03;;;;;;;9.81;100.00;100671.03;5035164;28;20454;-72
2023/10/19 01:05:06;;;;;;;8.80;3.90;;;;;;;9.90;100.00;100666.25;5034463;28;20037;-73
2023/10/19 01:07:41;;;;;;;10.57;4.30;;;;;;;9.01;100.00;100519.84;5035597;28;20041;-73
2023/10/19 01:10:08;;;;;;;7.97;3.70;;;;;;;9.31;100.00;100586.41;5036031;28;20060;-74
2023/10/19 01:12:40;;;;;;;7.90;2.70;;;;;;;9.73;100.00;100664.66;5045043;28;20017;-71
2023/10/19 01:15:19;;;;;;;4.95;3.03;;;;;;;9.78;100.00;100670.88;5039310;28;20025;-72
2023/10/19 01:17:52;;;;;;;;;;;;;;;9.77;100.00;100667.44;5036081;28;20037;-72
2023/10/19 01:20:22;;;;;;;6.05;2.83;;;;;;;9.21;100.00;100584.25;5042153;28;19917;-73
2023/10/19 01:23:20;;;;;;;6.50;3.42;;;;;;;9.59;100.00;100657.19;5025044;28;20056;-73
2023/10/19 01:28:22;;;;;;;;;;;;;;;9.53;100.00;100665.56;5034890;28;20044;-73
2023/10/19 01:30:51;;;;;;;16.77;4.95;;;;;;;8.88;100.00;100575.09;5035229;28;19925;-72
2023/10/19 01:33:19;;;;;;;15.93;4.70;;;;;;;9.27;100.00;100646.34;5032407;28;20038;-73
2023/10/19 01:38:34;;;;;;;10.25;4.00;;;;;;;8.49;100.00;100504.66;5039682;28;20083;-74
2023/10/19 01:41:13;;;;;;;6.70;3.75;;;;;;;9.31;100.00;100662.81;5033834;28;20038;-74
2023/10/19 01:43:43;;;;;;;15.68;5.40;;;;;;;9.26;100.00;100656.56;5034962;28;20037;-72
2023/10/19 01:46:13;;;;;;;15.55;5.47;;;;;;;9.30;100.00;100661.94;5034366;28;20399;-73
2023/10/19 01:48:44;;;;;;;;;;;;;;;9.31;100.00;100648.25;5039111;28;20052;-73
2023/10/19 01:51:11;;;;;;;11.23;4.38;;;;;;;9.11;100.00;100631.91;5035882;28;19913;-73
2023/10/19 01:53:44;;;;;;;14.63;4.90;;;;;;;9.30;100.00;100650.75;5039306;28;20044;-75
2023/10/19 01:56:14;;;;;;;17.10;6.45;;;;;;;9.35;100.00;100655.28;5032813;28;20517;-73
2023/10/19 01:58:43;;;;;;;22.05;5.20;;;;;;;8.87;100.00;100631.63;5034571;28;20021;-73
2023/10/19 02:03:36;;;;;;;11.93;4.65;;;;;;;8.56;100.00;100650.78;5032921;28;20063;-72
2023/10/19 02:06:17;;;;;;;15.40;5.40;;;;;;;8.30;100.00;100644.34;5033478;28;20033;-74
2023/10/19 02:08:53;;;;;;;16.30;6.40;;;;;;;7.65;100.00;100572.63;5028993;28;20022;-74
2023/10/19 02:11:22;;;;;;;16.42;5.68;;;;;;;8.30;100.00;100658.09;5035774;28;20033;-76
2023/10/19 02:13:49;;;;;;;14.25;5.45;;;;;;;8.48;100.00;100654.69;5036454;28;20042;-73
2023/10/19 02:16:22;;;;;;;21.45;6.05;;;;;;;8.53;100.00;100660.94;5037461;28;20075;-72
2023/10/19 02:18:50;;;;;;;11.88;6.40;;;;;;;8.49;100.00;100636.75;5032903;28;20112;-71
2023/10/19 02:21:21;;;;;;;15.57;6.32;;;;;;;8.75;100.00;100652.56;5035682;28;20112;-72
2023/10/19 02:23:53;;;;;;;18.50;6.32;;;;;;;8.68;100.00;100632.47;5035547;28;20053;-74
2023/10/19 02:26:30;;;;;;;12.48;6.47;;;;;;;8.88;100.00;100661.72;5033185;28;20096;-72
2023/10/19 02:28:56;;;;;;;11.77;5.72;;;;;;;8.94;100.00;100666.28;5040988;28;20029;-73
2023/10/19 02:31:24;;;;;;;17.27;6.70;;;;;;;8.82;100.00;100641.75;5034939;28;20036;-74
2023/10/19 02:34:00;;;;;;;22.05;5.43;;;;;;;8.78;100.00;100634.66;5044085;28;20355;-71
2023/10/19 02:36:30;;;;;;;12.10;5.85;;;;;;;8.81;100.00;100650.28;5038322;28;20036;-71
2023/10/19 02:38:58;;;;;;;12.82;5.55;;;;;;;8.77;100.00;100647.47;5030817;28;20033;-73
2023/10/19 02:41:26;;;;;;;13.52;6.85;;;;;;;8.80;100.00;100657.91;5034638;28;20041;-73
2023/10/19 02:46:34;;;;;;;16.98;6.00;;;;;;;8.71;100.00;100658.34;5036927;28;20037;-73
2023/10/19 02:49:11;;;;;;;32.97;7.28;;;;;;;8.77;100.00;100662.91;5041042;28;20128;-74
2023/10/19 02:51:37;;;;;;;20.15;6.18;;;;;;;8.80;100.00;100653.66;5029590;28;20029;-71
2023/10/19 02:54:05;;;;;;;16.88;5.97;;;;;;;8.82;100.00;100654.63;5036795;28;20483;-71
2023/10/19 02:56:31;;;;;;;28.92;7.00;;;;;;;8.16;100.00;100545.94;5032335;28;20040;-72
2023/10/19 02:59:03;;;;;;;31.20;6.80;;;;;;;8.78;100.00;100644.97;5035397;28;20029;-72
2023/10/19 03:01:31;;;;;;;12.70;5.93;;;;;;;8.74;100.00;100658.50;5033645;28;20040;-71
2023/10/19 03:04:00;;;;;;;18.80;5.38;;;;;;;8.63;100.00;100649.41;5030772;28;20037;-73
2023/10/19 03:06:33;;;;;;;21.43;5.57;;;;;;;8.65;100.00;100647.75;5031763;28;20035;-71
2023/10/19 03:09:13;;;;;;;10.32;4.47;;;;;;;7.97;100.00;100513.34;5035232;28;20129;-73
2023/10/19 03:11:44;;;;;;;7.00;4.13;;;;;;;8.03;100.00;100547.91;5032264;28;20411;-73
2023/10/19 03:14:11;;;;;;;11.30;5.55;;;;;;;8.53;100.00;100653.22;5032638;28;20033;-73
2023/10/19 03:16:37;;;;;;;23.27;5.40;;;;;;;8.37;100.00;100643.84;5027949;28;20033;-72
2023/10/19 03:19:04;;;;;;;14.60;5.85;;;;;;;8.47;100.00;100658.94;5036622;28;20051;-69
2023/10/19 03:21:33;;;;;;;26.15;6.60;;;;;;;7.90;100.00;100550.69;5035540;28;20028;-69
2023/10/19 03:24:12;;;;;;;12.40;5.60;;;;;;;8.38;100.00;100631.03;5031768;28;20050;-71
2023/10/19 03:26:40;;;;;;;10.95;6.68;;;;;;;8.50;100.00;100653.94;5033149;28;20408;-72
2023/10/19 03:29:12;;;;;;;14.82;6.28;;;;;;;8.62;100.00;100648.50;5035079;28;20036;-75
2023/10/19 03:31:43;;;;;;;11.77;5.78;;;;;;;8.70;100.00;100654.03;5009546;28;20034;-70
2023/10/19 03:34:10;;;;;;;12.75;6.00;;;;;;;8.43;100.00;100598.69;4997784;28;20470;-73
2023/10/19 03:36:36;;;;;;;18.17;6.07;;;;;;;8.05;100.00;100514.56;5013289;28;20520;-71
2023/10/19 03:39:11;;;;;;;16.88;6.55;;;;;;;8.65;100.00;100607.47;5006875;28;20040;-73
2023/10/19 03:41:39;;;;;;;10.25;5.07;;;;;;;8.37;100.00;100577.84;4997447;28;20045;-70
2023/10/19 03:44:05;;;;;;;11.55;5.78;;;;;;;8.52;100.00;100612.84;5013100;28;20054;-74
2023/10/19 03:46:31;;;;;;;13.20;5.32;;;;;;;8.48;100.00;100598.09;5012929;28;20034;-74
2023/10/19 03:49:10;;;;;;;12.88;5.15;;;;;;;8.65;100.00;100658.94;5009408;28;20057;-72
2023/10/19 03:51:40;;;;;;;20.73;5.43;;;;;;;8.62;100.00;100647.63;5016794;28;20099;-71
2023/10/19 03:54:21;;;;;;;;;;;;;;;8.73;100.00;100643.88;5009361;28;20030;-70
2023/10/19 03:56:49;;;;;;;7.15;5.28;;;;;;;8.50;100.00;100617.03;5008648;28;20424;-71
2023/10/19 03:59:15;;;;;;;12.75;6.00;;;;;;;8.17;100.00;100597.44;5008109;28;20042;-73
2023/10/19 04:01:43;;;;;;;11.40;6.00;;;;;;;8.53;100.00;100645.50;4994357;28;20044;-72
2023/10/19 04:04:09;;;;;;;16.08;6.38;;;;;;;8.37;100.00;100629.31;5029926;28;20106;-70
2023/10/19 04:06:35;;;;;;;12.43;5.82;;;;;;;8.43;100.00;100646.72;5028392;28;20080;-75
2023/10/19 04:09:01;;;;;;;12.40;6.30;;;;;;;8.28;100.00;100630.53;5028330;28;20029;-72
2023/10/19 04:11:32;;;;;;;9.55;5.72;;;;;;;8.07;100.00;100639.84;5038071;28;20036;-72
2023/10/19 04:14:03;;;;;;;10.15;6.05;;;;;;;8.03;100.00;100612.19;5029682;28;20079;-71
2023/10/19 04:16:30;;;;;;;12.40;6.88;;;;;;;8.03;100.00;100624.19;5033397;28;20487;-75
2023/10/19 04:18:55;;;;;;;14.73;6.68;;;;;;;7.31;100.00;100496.41;5038268;28;20030;-71
2023/10/19 04:21:21;;;;;;;16.10;7.10;;;;;;;8.03;100.00;100624.19;5034869;28;20044;-70
2023/10/19 04:23:46;;;;;;;18.45;6.80;;;;;;;7.93;100.00;100623.72;5034278;28;20061;-73
2023/10/19 04:26:13;;;;;;;15.65;7.78;;;;;;;8.05;100.00;100637.97;5034753;28;20030;-74
2023/10/19 04:28:49;;;;;;;14.65;7.20;;;;;;;8.15;100.00;100658.22;5032764;28;20403;-71
2023/10/19 04:31:16;;;;;;;14.95;7.40;;;;;;;8.14;100.00;100653.88;5036980;28;20495;-73
2023/10/19 04:33:45;;;;;;;13.00;7.38;;;;;;;8.19;100.00;100662.69;5032574;28;20065;-75
2023/10/19 04:36:14;;;;;;;18.97;7.30;;;;;;;7.88;100.00;100665.44;5044108;28;20037;-73
2023/10/19 04:38:40;;;;;;;11.98;7.10;;;;;;;7.96;100.00;100658.97;5035121;28;20064;-72
2023/10/19 04:41:10;;;;;;;22.95;7.28;;;;;;;8.00;100.00;100639.44;5040894;28;20460;-71
2023/10/19 04:43:37;;;;;;;29.20;8.25;;;;;;;8.04;100.00;100662.81;5033862;28;20410;-71
2023/10/19 04:46:10;;;;;;;31.00;8.70;;;;;;;7.77;100.00;100655.47;5041428;28;20120;-71
2023/10/19 04:48:40;;;;;;;25.58;7.68;;;;;;;7.76;100.00;100648.59;5037584;28;20037;-72
2023/10/19 04:51:09;;;;;;;27.92;8.10;;;;;;;7.89;100.00;100660.34;5037314;28;20117;-72
2023/10/19 04:53:35;;;;;;;16.40;7.63;;;;;;;7.90;100.00;100662.13;5042502;28;20017;-72
2023/10/19 04:56:04;;;;;;;17.83;9.00;;;;;;;8.01;100.00;100665.25;5043364;28;20044;-73
2023/10/19 04:58:30;;;;;;;17.63;8.80;;;;;;;8.14;100.00;100658.13;5042087;28;20068;-73
2023/10/19 05:00:58;;;;;;;36.35;9.07;;;;;;;8.12;100.00;100662.31;5043608;28;20061;-71
2023/10/19 05:03:24;;;;;;;37.05;17.08;;;;;;;8.08;100.00;100656.16;5040604;28;20053;-71
2023/10/19 05:05:49;;;;;;;106.32;47.38;;;;;;;8.05;100.00;100654.31;5043629;28;20090;-72
2023/10/19 05:08:14;;;;;;;34.42;12.02;;;;;;;6.92;100.00;100515.00;5041611;28;20107;-73
2023/10/19 05:10:42;;;;;;;25.33;12.35;;;;;;;7.85;100.00;100685.81;5033555;28;20110;-72
2023/10/19 05:13:07;;;;;;;39.70;15.07;;;;;;;7.72;100.00;100661.19;5042835;28;20025;-72
2023/10/19 05:15:34;;;;;;;20.77;10.32;;;;;;;7.68;100.00;100690.97;5035065;28;20117;-72
2023/10/19 05:18:00;;;;;;;21.50;10.55;;;;;;;7.51;100.00;100654.13;5041793;28;20029;-72
2023/10/19 05:20:26;;;;;;;20.52;9.10;;;;;;;7.77;100.00;100680.28;5042461;28;20578;-71
2023/10/19 05:22:51;;;;;;;17.58;9.73;;;;;;;7.83;100.00;100675.47;5043483;28;20137;-73
2023/10/19 05:25:16;;;;;;;17.60;10.25;;;;;;;7.98;100.00;100679.63;5043466;28;20083;-73
2023/10/19 05:27:42;;;;;;;24.55;10.27;;;;;;;8.07;100.00;100677.53;5042267;28;20024;-72
2023/10/19 05:30:11;;;;;;;21.48;9.57;;;;;;;8.18;100.00;100690.94;5041385;28;20113;-73
2023/10/19 05:32:36;;;;;;;14.63;9.13;;;;;;;8.22;100.00;100692.84;5034514;28;20506;-73
2023/10/19 05:35:04;;;;;;;23.85;10.52;;;;;;;8.19;100.00;100682.41;5042898;28;20036;-72
2023/10/19 05:37:30;;;;;;;24.40;11.45;;;;;;;8.18;100.00;100690.94;5033756;28;20094;-72
2023/10/19 05:39:56;;;;;;;23.42;10.57;;;;;;;7.99;100.00;100663.38;5040974;28;20037;-73
2023/10/19 05:42:22;;;;;;;26.20;10.80;;;;;;;8.02;100.00;100677.28;5040750;28;20029;-72
2023/10/19 05:44:47;;;;;;;26.63;10.98;;;;;;;8.12;100.00;100691.47;5036458;28;20494;-74
2023/10/19 05:47:13;;;;;;;23.02;11.48;;;;;;;7.62;100.00;100605.88;5034848;28;20041;-73
2023/10/19 05:49:38;;;;;;;24.70;10.30;;;;;;;7.56;100.00;100616.72;5040365;28;20026;-72
2023/10/19 05:52:04;;;;;;;25.38;12.27;;;;;;;7.55;100.00;100614.97;5042684;28;20032;-73
2023/10/19 05:54:29;;;;;;;31.38;14.05;;;;;;;8.10;100.00;100698.25;5042614;28;20079;-71
2023/10/19 05:56:56;;;;;;;24.25;12.18;;;;;;;8.13;100.00;100690.69;5037932;28;20037;-72
2023/10/19 05:59:23;;;;;;;27.65;12.85;;;;;;;8.16;100.00;100675.44;5037583;28;20033;-75
2023/10/19 06:01:49;;;;;;;31.38;12.57;;;;;;;8.29;100.00;100686.28;5041560;28;20060;-72
2023/10/19 06:04:14;;;;;;;26.58;11.48;;;;;;;8.42;100.00;100702.44;5035876;28;20080;-71
2023/10/19 06:06:40;;;;;;;25.63;13.57;;;;;;;8.15;100.00;100645.38;5038383;28;20041;-71
2023/10/19 06:09:08;;;;;;;29.33;13.02;;;;;;;8.39;100.00;100698.81;5041146;28;20037;-72
2023/10/19 06:11:37;;;;;;;28.40;14.27;;;;;;;8.45;100.00;100690.50;5034266;28;20029;-72
2023/10/19 06:14:06;;;;;;;22.40;12.60;;;;;;;8.57;100.00;100704.00;5039870;28;20033;-73
2023/10/19 06:16:33;;;;;;;24.63;12.63;;;;;;;8.61;100.00;100703.38;5037834;28;20039;-72
2023/10/19 06:18:59;;;;;;;25.20;14.73;;;;;;;8.64;100.00;100697.50;5042620;28;20033;-72
2023/10/19 06:21:24;;;;;;;28.55;13.73;;;;;;;8.76;100.00;100712.63;5039826;28;20028;-75
2023/10/19 06:23:50;;;;;;;26.23;13.60;;;;;;;8.65;100.00;100696.66;5043022;28;20049;-78
2023/10/19 06:26:16;;;;;;;26.67;12.43;;;;;;;8.62;100.00;100681.09;5033473;28;20025;-71
2023/10/19 06:28:41;;;;;;;22.75;13.52;;;;;;;8.62;100.00;100675.94;5039476;28;20029;-73
2023/10/19 06:31:07;;;;;;;31.08;13.77;;;;;;;8.76;100.00;100699.75;5042087;28;20450;-72
2023/10/19 06:33:33;;;;;;;25.60;14.00;;;;;;;8.71;100.00;100682.41;5033554;28;20033;-71
2023/10/19 06:35:59;;;;;;;27.55;14.15;;;;;;;8.90;100.00;100709.03;5040018;28;20029;-73
2023/10/19 06:38:25;;;;;;;29.88;15.27;;;;;;;8.50;100.00;100700.28;5038458;28;20112;-73
2023/10/19 06:40:51;;;;;;;31.83;15.10;;;;;;;8.45;100.00;100696.56;5048793;28;20060;-72
2023/10/19 06:43:17;;;;;;;30.55;15.15;;;;;;;8.45;100.00;100706.84;5040823;28;20558;-71
2023/10/19 06:45:44;;;;;;;32.22;14.90;;;;;;;8.45;100.00;100699.13;5041152;28;20025;-72
2023/10/19 06:48:11;;;;;;;34.13;17.00;;;;;;;8.66;100.00;100704.47;5037319;28;20036;-74
2023/10/19 06:50:37;;;;;;;34.25;16.67;;;;;;;8.73;100.00;100715.94;5039999;28;20030;-72
2023/10/19 06:53:05;;;;;;;34.85;18.52;;;;;;;8.47;100.00;100706.94;5039868;28;20064;-70
2023/10/19 06:55:31;;;;;;;31.67;17.70;;;;;;;8.39;100.00;100693.69;5039080;28;20033;-73
2023/10/19 06:57:57;;;;;;;38.92;19.30;;;;;;;8.56;100.00;100704.81;5041739;28;20036;-72
2023/10/19 07:00:26;;;;;;;35.45;17.25;;;;;;;8.68;100.00;100715.72;5035276;28;20033;-71
2023/10/19 07:02:55;;;;;;;33.42;18.60;;;;;;;8.76;100.00;100707.47;5036496;28;20034;-72
2023/10/19 07:05:22;;;;;;;36.17;19.10;;;;;;;8.89;100.00;100700.41;5041834;28;20473;-72
2023/10/19 07:07:59;;;;;;;35.10;20.05;;;;;;;9.01;100.00;100700.13;5041274;28;20037;-73
2023/10/19 07:10:27;;;;;;;32.33;19.98;;;;;;;9.14;100.00;100691.25;5041475;28;20033;-72
2023/10/19 07:12:54;;;;;;;37.05;19.23;;;;;;;9.19;100.00;100699.22;5038537;28;20025;-71
2023/10/19 07:15:25;;;;;;;34.20;19.85;;;;;;;9.13;100.00;100698.91;5039737;28;20094;-71
2023/10/19 07:17:54;;;;;;;39.03;19.67;;;;;;;9.06;100.00;100659.13;5053004;28;20112;-72
2023/10/19 07:20:26;;;;;;;35.47;19.33;;;;;;;8.83;100.00;100604.00;5039211;28;20392;-71
2023/10/19 07:22:53;;;;;;;41.47;21.83;;;;;;;9.40;100.00;100691.56;5039145;28;20081;-72
2023/10/19 07:25:21;;;;;;;43.35;21.83;;;;;;;9.47;100.00;100692.72;5038043;28;20033;-71
2023/10/19 07:27:49;;;;;;;41.60;22.23;;;;;;;9.38;100.00;100676.06;5041011;28;20098;-71
2023/10/19 07:30:20;;;;;;;35.08;20.70;;;;;;;9.29;100.00;100685.94;5039167;28;20040;-75
2023/10/19 07:32:48;;;;;;;45.08;24.27;;;;;;;9.25;100.00;100693.47;5038978;28;20121;-71
2023/10/19 07:35:14;;;;;;;50.97;22.17;;;;;;;9.33;100.00;100692.09;5034400;28;20079;-73
2023/10/19 07:37:39;;;;;;;53.17;24.35;;;;;;;9.25;100.00;100704.66;5039317;28;20030;-72
2023/10/19 07:40:06;;;;;;;53.45;23.25;;;;;;;9.19;100.00;100689.78;5032390;28;20480;-74
2023/10/19 07:42:32;;;;;;;50.00;25.80;;;;;;;9.21;100.00;100674.41;5039852;28;20033;-72
2023/10/19 07:44:59;;;;;;;53.40;26.27;;;;;;;9.03;100.00;100672.75;5038934;28;20032;-71
2023/10/19 07:47:24;;;;;;;62.88;28.45;;;;;;;9.18;100.00;100689.72;5039610;28;20483;-71
2023/10/19 07:49:52;;;;;;;71.50;31.02;;;;;;;9.36;100.00;100681.97;5039679;28;20039;-72
2023/10/19 07:52:17;;;;;;;69.80;30.63;;;;;;;9.45;100.00;100679.78;5041327;28;20025;-72
2023/10/19 07:54:43;;;;;;;65.05;30.63;;;;;;;9.65;100.00;100695.25;5041288;28;20497;-72
2023/10/19 07:57:08;;;;;;;72.15;30.95;;;;;;;9.52;100.00;100657.72;5043730;28;20033;-72
2023/10/19 07:59:34;;;;;;;70.28;32.22;;;;;;;9.73;100.00;100688.72;5043710;28;20037;-71
2023/10/19 08:02:03;;;;;;;70.10;33.60;;;;;;;9.74;100.00;100667.28;5043312;28;20112;-72
2023/10/19 08:04:29;;;;;;;60.00;30.60;;;;;;;9.92;100.00;100687.84;5036354;28;20036;-73
2023/10/19 08:06:58;;;;;;;65.95;30.90;;;;;;;9.84;100.00;100672.06;5045396;28;20053;-71
2023/10/19 08:09:24;;;;;;;73.32;32.70;;;;;;;10.05;100.00;100689.25;5036059;28;20453;-72
2023/10/19 08:11:55;;;;;;;70.18;33.80;;;;;;;10.02;100.00;100664.19;5043520;28;20033;-73
2023/10/19 08:14:22;;;;;;;73.25;33.08;;;;;;;10.19;100.00;100682.97;5043628;28;20473;-71
2023/10/19 08:16:47;;;;;;;74.75;34.47;;;;;;;10.10;100.00;100667.09;5021450;28;20041;-73
2023/10/19 08:19:13;;;;;;;80.97;36.95;;;;;;;10.33;100.00;100680.06;5020717;28;20048;-73
2023/10/19 08:21:38;;;;;;;76.75;36.25;;;;;;;10.34;100.00;100650.88;5005903;28;20176;-72
2023/10/19 08:24:04;;;;;;;82.25;37.35;;;;;;;10.63;100.00;100669.25;5022080;28;20063;-72
2023/10/19 08:26:31;;;;;;;84.50;36.20;;;;;;;10.13;100.00;100607.00;5013593;28;20204;-72
2023/10/19 08:28:58;;;;;;;79.65;35.67;;;;;;;10.55;100.00;100661.22;5005605;28;20034;-73
2023/10/19 08:31:24;;;;;;;81.53;34.55;;;;;;;10.65;100.00;100665.94;5021945;28;20045;-77
2023/10/19 08:33:50;;;;;;;86.30;36.78;;;;;;;10.67;100.00;100650.50;5019963;28;20038;-73
2023/10/19 08:36:19;;;;;;;89.28;40.60;;;;;;;10.58;100.00;100621.72;5001864;28;20091;-74
2023/10/19 08:38:46;;;;;;;82.88;37.13;;;;;;;10.98;100.00;100641.38;5014052;28;20451;-76
2023/10/19 08:41:13;;;;;;;86.07;37.80;;;;;;;11.16;100.00;100629.13;5021102;28;20669;-76
2023/10/19 08:43:39;;;;;;;97.65;36.80;;;;;;;11.47;100.00;100645.75;5019638;28;20065;-75
2023/10/19 08:46:05;;;;;;;90.45;36.83;;;;;;;11.53;100.00;100616.66;5019385;28;20052;-73
2023/10/19 08:48:36;;;;;;;85.90;33.42;;;;;;;11.03;100.00;100513.25;5032596;28;20045;-74
2023/10/19 08:51:05;;;;;;;104.35;38.70;;;;;;;11.90;100.00;100637.72;5044347;28;20032;-73
2023/10/19 08:53:32;;;;;;;98.45;34.92;;;;;;;11.94;100.00;100642.22;5039289;28;20384;-70
2023/10/19 08:56:00;;;;;;;94.75;35.97;;;;;;;12.13;100.00;100641.16;5033686;28;20064;-72
2023/10/19 08:58:27;;;;;;;92.38;38.05;;;;;;;12.29;100.00;100633.03;5032977;28;20057;-76
2023/10/19 09:00:56;;;;;;;97.75;37.47;;;;;;;12.58;100.00;100630.50;5043131;28;20452;-74
2023/10/19 09:03:22;;;;;;;92.82;35.00;;;;;;;12.71;100.00;100625.69;5032410;28;20022;-74
2023/10/19 09:05:47;;;;;;;83.13;33.42;;;;;;;12.64;100.00;100610.84;5031470;28;20033;-76
2023/10/19 09:08:21;;;;;;;93.53;35.03;;;;;;;12.80;100.00;100613.03;5032002;28;20391;-76
2023/10/19 09:10:49;;;;;;;74.57;26.02;;;;;;;13.04;100.00;100617.19;5033376;28;20030;-74
2023/10/19 09:13:23;;;;;;;75.60;26.98;;;;;;;13.17;100.00;100614.13;5018318;28;20583;-73
2023/10/19 09:15:49;;;;;;;75.57;29.80;;;;;;;13.21;100.00;100604.72;5015314;28;20037;-75
2023/10/19 09:18:22;;;;;;;83.93;28.30;;;;;;;13.32;100.00;100625.75;5016714;28;20038;-75
2023/10/19 09:20:52;;;;;;;64.82;23.77;;;;;;;13.51;100.00;100603.84;5003028;28;20022;-72
2023/10/19 09:23:22;;;;;;;63.17;20.80;;;;;;;13.60;100.00;100593.72;5008515;28;20431;-75
2023/10/19 09:25:54;;;;;;;57.97;21.58;;;;;;;13.89;100.00;100606.56;4996772;28;20162;-76
2023/10/19 09:28:20;;;;;;;56.15;22.98;;;;;;;13.98;100.00;100583.44;5001238;28;20030;-77
2023/10/19 09:30:46;;;;;;;39.58;16.40;;;;;;;14.34;100.00;100603.34;5016795;28;20497;-72
2023/10/19 09:33:14;;;;;;;37.42;16.20;;;;;;;14.43;100.00;100599.19;5019343;28;20132;-73
2023/10/19 09:35:43;;;;;;;31.63;16.50;;;;;;;14.57;100.00;100582.22;5015686;28;20018;-72
2023/10/19 09:38:09;;;;;;;35.45;17.95;;;;;;;14.81;100.00;100583.63;4991750;28;20033;-73
2023/10/19 09:40:34;;;;;;;28.67;16.08;;;;;;;14.88;100.00;100582.94;5010989;28;20041;-75
2023/10/19 09:43:07;;;;;;;27.25;13.52;;;;;;;14.65;100.00;100554.69;5000358;28;20044;-74
2023/10/19 09:45:41;;;;;;;25.58;15.00;;;;;;;14.65;100.00;100557.31;5015722;28;20042;-74
2023/10/19 09:48:08;;;;;;;25.00;15.77;;;;;;;15.06;100.00;100563.34;4998974;28;20034;-74
2023/10/19 09:50:34;;;;;;;27.60;15.32;;;;;;;15.34;100.00;100583.84;5023992;28;20132;-74
2023/10/19 09:53:03;;;;;;;27.35;13.50;;;;;;;15.50;100.00;100581.53;5042420;28;20418;-75
2023/10/19 09:55:38;;;;;;;18.35;12.82;;;;;;;15.57;100.00;100572.13;5035723;28;20025;-72
2023/10/19 09:58:16;;;;;;;24.98;14.38;;;;;;;15.56;100.00;100527.00;5036795;28;20029;-73
2023/10/19 10:00:51;;;;;;;17.35;12.00;;;;;;;15.62;100.00;100511.47;5070526;28;20107;-73
2023/10/19 10:03:53;;;;;;;14.32;10.35;;;;;;;16.21;100.00;100566.25;5038553;28;20040;-73
2023/10/19 10:06:30;;;;;;;15.82;10.15;;;;;;;16.16;100.00;100516.69;5036622;28;20080;-72
2023/10/19 10:08:58;;;;;;;12.98;9.45;;;;;;;16.45;100.00;100547.53;5037688;28;20025;-70
2023/10/19 10:11:29;;;;;;;14.52;9.25;;;;;;;16.55;100.00;100538.97;5034215;28;20059;-75
2023/10/19 10:13:58;;;;;;;11.05;8.88;;;;;;;16.57;100.00;100532.03;5038643;28;20072;-76
2023/10/19 10:16:26;;;;;;;13.70;9.45;;;;;;;16.71;100.00;100528.75;5036484;28;20083;-74
2023/10/19 10:18:58;;;;;;;12.40;9.60;;;;;;;16.71;99.46;100513.09;5061452;28;20487;-75
2023/10/19 10:21:24;;;;;;;10.23;8.38;;;;;;;16.82;99.47;100521.91;5034689;28;20029;-75
2023/10/19 10:23:57;;;;;;;14.13;9.48;;;;;;;16.97;99.48;100522.16;5032028;28;20080;-73
2023/10/19 10:26:37;;;;;;;10.65;7.63;;;;;;;17.06;97.97;100502.22;5036408;28;20025;-74
2023/10/19 10:29:23;;;;;;;10.02;7.95;;;;;;;17.40;96.97;100521.72;5033620;28;20029;-76
2023/10/19 10:31:50;;;;;;;8.43;6.47;;;;;;;17.36;95.41;100517.34;5026105;28;20036;-74
2023/10/19 10:34:36;;;;;;;9.65;6.85;;;;;;;17.41;95.64;100504.34;5040102;28;20041;-75
2023/10/19 10:37:05;;;;;;;10.40;6.72;;;;;;;16.92;96.51;100431.66;5037273;28;20064;-74
2023/10/19 10:39:31;;;;;;;8.15;6.45;;;;;;;16.61;95.51;100356.59;5043801;28;20035;-75
2023/10/19 10:42:04;;;;;;;9.23;6.82;;;;;;;17.61;95.64;100487.09;5036194;28;20107;-74
2023/10/19 10:44:38;;;;;;;9.57;6.55;;;;;;;17.80;93.92;100489.88;5036192;28;20446;-75
2023/10/19 10:47:06;;;;;;;8.38;5.80;;;;;;;17.90;92.85;100472.53;5041053;28;20466;-75
2023/10/19 10:49:32;;;;;;;9.15;5.88;;;;;;;18.02;92.99;100464.81;5038490;28;20021;-75
2023/10/19 10:51:57;;;;;;;7.55;5.72;;;;;;;17.92;92.44;100452.53;5043079;28;20040;-74
2023/10/19 10:54:23;;;;;;;8.55;6.15;;;;;;;18.00;91.13;100457.84;5040734;28;20068;-75
2023/10/19 10:56:49;;;;;;;9.57;5.13;;;;;;;18.31;89.86;100474.56;5035528;28;20476;-75
2023/10/19 10:59:15;;;;;;;7.65;5.90;;;;;;;18.43;88.79;100463.28;5039981;28;20061;-74
2023/10/19 11:01:42;;;;;;;6.50;5.13;;;;;;;18.41;88.84;100451.94;5039307;28;20069;-74
2023/10/19 11:04:12;;;;;;;7.97;4.90;;;;;;;18.05;88.21;100389.06;5041583;28;20690;-75
2023/10/19 11:06:57;;;;;;;6.72;4.65;;;;;;;17.98;87.98;100370.75;5039457;28;20029;-75
2023/10/19 11:09:24;;;;;;;5.80;4.43;;;;;;;18.31;88.41;100418.81;5039047;28;20044;-75
2023/10/19 11:11:51;;;;;;;5.43;4.40;;;;;;;18.30;88.68;100432.75;5023656;28;20087;-75
2023/10/19 11:14:17;;;;;;;7.40;5.22;;;;;;;18.41;89.45;100405.75;5040001;28;20121;-75
2023/10/19 11:16:43;;;;;;;7.70;5.25;;;;;;;18.38;87.58;100368.28;5030451;28;20047;-74
2023/10/19 11:19:09;;;;;;;6.47;4.78;;;;;;;18.66;86.65;100397.13;5038963;28;20057;-76
2023/10/19 11:21:36;;;;;;;6.63;5.18;;;;;;;18.64;87.30;100401.47;5041578;28;20101;-75
2023/10/19 11:24:01;;;;;;;7.85;5.60;;;;;;;18.72;87.07;100405.84;5041309;28;20045;-79
2023/10/19 11:26:27;;;;;;;5.65;4.72;;;;;;;18.84;87.92;100399.78;5047654;28;20560;-73
2023/10/19 11:29:00;;;;;;;6.28;4.55;;;;;;;18.99;87.11;100416.41;5037039;28;20047;-75
2023/10/19 11:31:27;;;;;;;7.03;5.05;;;;;;;19.03;85.19;100378.94;5039268;28;20029;-76
2023/10/19 11:33:58;;;;;;;6.78;4.53;;;;;;;18.50;84.65;100295.13;5034673;28;20033;-74
2023/10/19 11:36:25;;;;;;;7.28;5.30;;;;;;;19.11;85.80;100407.72;5035875;28;20081;-75